Dahli Brooke — WDH3184 — position and weather

sailwx.info

Track history (hours):
 
Tides and Currents Weather Stations Pressure Air Temp Water Temp Dewpoint Dewpoint Depression Visibility Wind Speed Wind Dir Waves Ship Positions

Dahli Brooke

Owner: Dahli Brooke, LLC., Sulphur, LA. More information available from US FCC via Universal Licensing System and Coast Guard Vessel Documentation Center.

Last reported at 2017-Sep-24 17:45 UTC. Time now 2017-Sep-25 06:34 UTC.
Position N 29°50' W 091°60'.

Length 25 m.

Type: Fishing. MMSI: 367605130.

Date/timePositionNaut miles runAvg speedWind from/ knotsBaromVisibWave heightAir tempDewpointWater temp
2017-Sep-24 17:45N 29°50' W 091°60'2 6.7
2017-Sep-24 17:26N 29°49' W 092°02'3 6.2
2017-Sep-24 17:00N 29°48' W 092°05'3 6.4
2017-Sep-24 16:30N 29°47' W 092°08'3 5.7
2017-Sep-24 16:00N 29°47' W 092°12'1 2.2
2017-Sep-24 15:30N 29°47' W 092°13'2 3.1
2017-Sep-24 15:00N 29°48' W 092°14'3 5.4
2017-Sep-24 14:30N 29°49' W 092°17'42 6.0
2017-Sep-24 07:34N 29°56' W 093°05'2 6.2
2017-Sep-24 07:14N 29°56' W 093°07'1 5.9
2017-Sep-24 07:00N 29°56' W 093°09'3 6.1
2017-Sep-24 06:30N 29°58' W 093°11'3 6.3
2017-Sep-24 06:00N 30°01' W 093°14'3 6.0
2017-Sep-24 05:30N 30°03' W 093°16'3 5.7
2017-Sep-24 05:00N 30°05' W 093°18'1 2.3
2017-Sep-24 04:30N 30°06' W 093°18'2 3.6
2017-Sep-24 04:00N 30°05' W 093°20'3 5.1
2017-Sep-24 03:30N 30°04' W 093°23'3 6.5
2017-Sep-24 03:00N 30°04' W 093°26'3 6.7
2017-Sep-24 02:30N 30°04' W 093°30'3 6.6
2017-Sep-24 02:00N 30°04' W 093°34'3 6.6
2017-Sep-24 01:30N 30°04' W 093°38'11 0.2
2017-Sep-22 02:00N 30°04' W 093°25'3 6.5
2017-Sep-22 01:30N 30°04' W 093°28'3 6.5
2017-Sep-22 01:00N 30°04' W 093°32'3 6.7
2017-Sep-22 00:30N 30°04' W 093°36'3 6.2
2017-Sep-21 23:58N 30°04' W 093°40'6 1.2
2017-Sep-21 19:14N 30°04' W 093°33'2 7.3
2017-Sep-21 19:00N 30°04' W 093°31'4 7.3
2017-Sep-21 18:30N 30°04' W 093°27'3 5.8
2017-Sep-21 18:00N 30°04' W 093°24'2 3.8
2017-Sep-21 17:30N 30°04' W 093°22'2 4.2
2017-Sep-21 17:00N 30°05' W 093°20'0 0.3
2017-Sep-21 16:24N 30°05' W 093°20'0 0.0
2017-Sep-21 16:00N 30°05' W 093°20'0 0.0
2017-Sep-21 15:30N 30°05' W 093°20'0 0.0
2017-Sep-21 15:00N 30°05' W 093°20'0 0.0
2017-Sep-21 14:30N 30°05' W 093°20'0 0.0
2017-Sep-21 14:00N 30°05' W 093°20'0 0.0
2017-Sep-21 13:30N 30°05' W 093°20'0 0.0
2017-Sep-21 13:00N 30°05' W 093°20'0 0.0
2017-Sep-21 12:30N 30°05' W 093°20'0 0.0
2017-Sep-21 12:00N 30°05' W 093°20'0 0.0
2017-Sep-21 11:30N 30°05' W 093°20'0 0.0
2017-Sep-21 11:00N 30°05' W 093°20'0 0.0
2017-Sep-21 10:30N 30°05' W 093°20'0 0.0
2017-Sep-21 10:00N 30°05' W 093°20'2 3.8
2017-Sep-21 09:30N 30°06' W 093°18'0 0.0
2017-Sep-21 09:00N 30°06' W 093°18'1 2.4
2017-Sep-21 08:30N 30°06' W 093°20'3 5.3
2017-Sep-21 08:00N 30°09' W 093°20'2 3.5
2017-Sep-21 07:30N 30°10' W 093°19'2 3.1
2017-Sep-21 07:00N 30°09' W 093°20'3 6.3
2017-Sep-21 06:30N 30°06' W 093°19'3 5.7
2017-Sep-21 06:00N 30°04' W 093°16'3 6.4
2017-Sep-21 05:30N 30°02' W 093°14'3 6.0
2017-Sep-21 05:00N 29°59' W 093°12'3 6.9
2017-Sep-21 04:30N 29°56' W 093°10'3 5.3
2017-Sep-21 04:00N 29°56' W 093°07'43 6.1
2017-Sep-20 21:03N 29°50' W 092°18'1 6.4
2017-Sep-20 20:51N 29°49' W 092°17'2 6.4
2017-Sep-20 20:30N 29°48' W 092°15'3 6.4
2017-Sep-20 20:00N 29°47' W 092°12'3 6.6
2017-Sep-20 19:30N 29°47' W 092°08'8 0.4
2017-Sep-20 01:11N 29°50' W 091°60'1 6.6
2017-Sep-20 01:00N 29°49' W 092°01'3 6.5
2017-Sep-20 00:30N 29°48' W 092°05'3 6.6
2017-Sep-20 00:00N 29°47' W 092°08'3 6.2
2017-Sep-19 23:30N 29°47' W 092°12'2 4.0
2017-Sep-19 23:00N 29°48' W 092°14'3 6.6
2017-Sep-19 22:30N 29°49' W 092°17'43 5.9
2017-Sep-19 15:16N 29°56' W 093°06'2 5.8
2017-Sep-19 15:00N 29°56' W 093°08'3 5.3
2017-Sep-19 14:30N 29°57' W 093°11'3 6.1
2017-Sep-19 14:00N 29°59' W 093°13'2 4.6
2017-Sep-19 13:30N 30°01' W 093°14'3 5.3
2017-Sep-19 13:00N 30°04' W 093°16'2 4.6
2017-Sep-19 12:30N 30°05' W 093°18'2 3.8
2017-Sep-19 12:00N 30°05' W 093°20'2 3.8
2017-Sep-19 11:30N 30°04' W 093°21'1 1.5
2017-Sep-19 11:00N 30°04' W 093°21'3 5.0
2017-Sep-19 10:30N 30°07' W 093°20'2 4.9
2017-Sep-19 10:00N 30°09' W 093°20'1 2.9
2017-Sep-19 09:30N 30°10' W 093°19'3 5.4
2017-Sep-19 09:00N 30°08' W 093°20'3 5.6
2017-Sep-19 08:30N 30°05' W 093°20'2 3.3
2017-Sep-19 08:00N 30°04' W 093°21'0 0.0
2017-Sep-19 07:30N 30°04' W 093°21'0 0.0
2017-Sep-19 07:00N 30°04' W 093°21'0 0.0
2017-Sep-19 06:30N 30°04' W 093°21'0 0.0
2017-Sep-19 06:00N 30°04' W 093°21'0 0.0
2017-Sep-19 05:30N 30°04' W 093°21'0 0.0
2017-Sep-19 05:00N 30°04' W 093°21'0 0.0
2017-Sep-19 04:30N 30°04' W 093°21'0 0.0
2017-Sep-19 04:00N 30°04' W 093°21'0 0.0
2017-Sep-19 03:30N 30°04' W 093°21'0 0.0
2017-Sep-19 03:00N 30°04' W 093°21'0 0.0
2017-Sep-19 02:30N 30°04' W 093°21'0 0.0
2017-Sep-19 02:00N 30°04' W 093°21'0 0.0
2017-Sep-19 01:30N 30°04' W 093°21'0 0.0
2017-Sep-19 01:00N 30°04' W 093°21'0 0.0
2017-Sep-19 00:30N 30°04' W 093°21'0 0.0
2017-Sep-19 00:00N 30°04' W 093°21'0 0.0
2017-Sep-18 23:30N 30°04' W 093°21'0 0.0
2017-Sep-18 23:00N 30°04' W 093°21'0 0.0
2017-Sep-18 22:30N 30°04' W 093°21'0 0.0
2017-Sep-18 22:00N 30°04' W 093°21'0 0.0
2017-Sep-18 21:30N 30°04' W 093°21'0 0.0
2017-Sep-18 21:00N 30°04' W 093°21'0 0.0
2017-Sep-18 20:30N 30°04' W 093°21'0 0.0
2017-Sep-18 20:00N 30°04' W 093°21'0 0.0
2017-Sep-18 19:30N 30°04' W 093°21'0 0.0
2017-Sep-18 19:00N 30°04' W 093°21'0 0.0
2017-Sep-18 18:30N 30°04' W 093°21'0 0.0
2017-Sep-18 18:00N 30°04' W 093°21'0 0.0
2017-Sep-18 17:30N 30°04' W 093°21'0 0.0
2017-Sep-18 17:00N 30°04' W 093°21'0 0.0
2017-Sep-18 16:30N 30°04' W 093°21'0 0.1
2017-Sep-18 16:00N 30°04' W 093°21'0 0.9
2017-Sep-18 15:30N 30°04' W 093°22'0 0.9
2017-Sep-18 15:00N 30°04' W 093°21'0 0.0
2017-Sep-18 14:30N 30°04' W 093°21'0 0.0
2017-Sep-18 14:00N 30°04' W 093°21'0 0.0
2017-Sep-18 13:30N 30°04' W 093°21'0 0.0
2017-Sep-18 13:00N 30°04' W 093°21'0 0.0
2017-Sep-18 12:30N 30°04' W 093°21'0 0.0
2017-Sep-18 12:00N 30°04' W 093°21'0 0.2
2017-Sep-18 11:30N 30°04' W 093°21'2 4.4
2017-Sep-18 11:00N 30°05' W 093°20'4 7.3
2017-Sep-18 10:30N 30°09' W 093°20'2 3.1
2017-Sep-18 10:00N 30°10' W 093°19'0 0.1
2017-Sep-18 09:30N 30°10' W 093°19'4 7.2
2017-Sep-18 09:00N 30°07' W 093°20'3 5.4
2017-Sep-18 08:30N 30°04' W 093°21'0 0.3
2017-Sep-18 08:00N 30°04' W 093°21'1 2.0
2017-Sep-18 07:30N 30°05' W 093°20'0 0.0
2017-Sep-18 07:00N 30°05' W 093°20'0 0.0
2017-Sep-18 06:30N 30°05' W 093°20'0 0.0
2017-Sep-18 06:00N 30°05' W 093°20'0 0.0
2017-Sep-18 05:30N 30°05' W 093°20'0 0.0
2017-Sep-18 05:00N 30°05' W 093°20'0 0.0
2017-Sep-18 04:30N 30°05' W 093°20'0 0.0
2017-Sep-18 04:00N 30°05' W 093°20'0 0.0
2017-Sep-18 03:30N 30°05' W 093°20'0 0.0
2017-Sep-18 03:00N 30°05' W 093°20'0 0.0
2017-Sep-18 02:30N 30°05' W 093°20'0 0.0
2017-Sep-18 02:00N 30°05' W 093°20'0 0.0
2017-Sep-18 01:30N 30°05' W 093°20'0 0.0
2017-Sep-18 01:00N 30°05' W 093°20'0 0.0
2017-Sep-18 00:30N 30°05' W 093°20'0 0.0
2017-Sep-18 00:00N 30°05' W 093°20'0 0.0
2017-Sep-17 23:30N 30°05' W 093°20'0 0.0
2017-Sep-17 23:00N 30°05' W 093°20'0 0.0
2017-Sep-17 22:30N 30°05' W 093°20'0 0.0
2017-Sep-17 22:00N 30°05' W 093°20'0 0.0
2017-Sep-17 21:30N 30°05' W 093°20'0 0.0
2017-Sep-17 21:00N 30°05' W 093°20'0 0.0
2017-Sep-17 20:30N 30°05' W 093°20'0 0.0
2017-Sep-17 20:00N 30°05' W 093°20'0 0.0
2017-Sep-17 19:30N 30°05' W 093°20'0 0.0
2017-Sep-17 19:00N 30°05' W 093°20'0 0.0
2017-Sep-17 18:30N 30°05' W 093°20'0 0.0
2017-Sep-17 18:00N 30°05' W 093°20'0 0.0
2017-Sep-17 17:30N 30°05' W 093°20'0 0.0
2017-Sep-17 17:00N 30°05' W 093°20'0 0.0
2017-Sep-17 16:30N 30°05' W 093°20'0 0.0
2017-Sep-17 16:00N 30°05' W 093°20'0 0.0
2017-Sep-17 15:30N 30°05' W 093°20'0 0.0
2017-Sep-17 15:00N 30°05' W 093°20'0 0.0
2017-Sep-17 14:30N 30°05' W 093°20'0 0.0
2017-Sep-17 14:00N 30°05' W 093°20'0 0.0
2017-Sep-17 13:30N 30°05' W 093°20'0 0.0
2017-Sep-17 13:00N 30°05' W 093°20'0 0.0
2017-Sep-17 12:30N 30°05' W 093°20'0 0.0
2017-Sep-17 12:00N 30°05' W 093°20'0 0.0
2017-Sep-17 11:30N 30°05' W 093°20'0 0.0
2017-Sep-17 11:00N 30°05' W 093°20'0 0.0
2017-Sep-17 10:30N 30°05' W 093°20'0 0.0
2017-Sep-17 10:00N 30°05' W 093°20'0 0.0
2017-Sep-17 09:30N 30°05' W 093°20'0 0.0
2017-Sep-17 09:00N 30°05' W 093°20'0 0.0
2017-Sep-17 08:30N 30°05' W 093°20'0 0.0
2017-Sep-17 08:00N 30°05' W 093°20'0 0.0
2017-Sep-17 07:30N 30°05' W 093°20'0 0.0
2017-Sep-17 07:00N 30°05' W 093°20'0 0.0
2017-Sep-17 06:30N 30°05' W 093°20'0 0.0
2017-Sep-17 06:00N 30°05' W 093°20'0 0.0
2017-Sep-17 05:30N 30°05' W 093°20'0 0.0
2017-Sep-17 04:55N 30°05' W 093°20'0 0.0
2017-Sep-17 04:30N 30°05' W 093°20'0 0.0
2017-Sep-17 04:00N 30°05' W 093°20'0 0.0
2017-Sep-17 03:30N 30°05' W 093°20'0 0.0
2017-Sep-17 03:00N 30°05' W 093°20'0 0.0
2017-Sep-17 02:30N 30°05' W 093°20'0 0.0
2017-Sep-17 02:00N 30°05' W 093°20'0 0.0
2017-Sep-17 01:30N 30°05' W 093°20'0 0.0
2017-Sep-17 01:00N 30°05' W 093°20'0 0.0
2017-Sep-17 00:30N 30°05' W 093°20'0 0.0
2017-Sep-17 00:00N 30°05' W 093°20'0 0.0
2017-Sep-16 23:30N 30°05' W 093°20'0 0.0
2017-Sep-16 23:00N 30°05' W 093°20'0 0.0
2017-Sep-16 22:30N 30°05' W 093°20'0 0.0
2017-Sep-16 22:00N 30°05' W 093°20'0 0.0
2017-Sep-16 21:30N 30°05' W 093°20'0 0.0
2017-Sep-16 21:00N 30°05' W 093°20'1 2.1
2017-Sep-16 20:30N 30°06' W 093°20'3 7.0
2017-Sep-16 20:00N 30°09' W 093°20'1 1.1
2017-Sep-16 19:30N 30°10' W 093°19'3 7.0
2017-Sep-16 19:00N 30°06' W 093°20'2 3.9
2017-Sep-16 18:30N 30°05' W 093°18'3 5.1
2017-Sep-16 18:00N 30°03' W 093°16'3 5.3
2017-Sep-16 17:30N 30°01' W 093°14'3 5.7
2017-Sep-16 17:00N 29°59' W 093°12'3 5.9
2017-Sep-16 16:30N 29°57' W 093°10'3 5.7
2017-Sep-16 16:00N 29°56' W 093°07'42 5.1
2017-Sep-16 07:40N 29°50' W 092°18'1 5.1
2017-Sep-16 07:30N 29°50' W 092°18'1 3.0
2017-Sep-16 07:00N 29°49' W 092°16'1 2.9
2017-Sep-16 06:30N 29°48' W 092°15'2 4.4
2017-Sep-16 06:00N 29°47' W 092°12'1 2.0
2017-Sep-16 05:30N 29°47' W 092°11'0 0.0
2017-Sep-16 05:00N 29°47' W 092°11'0 0.1
2017-Sep-16 04:30N 29°47' W 092°11'2 3.3
2017-Sep-16 04:00N 29°47' W 092°09'2 4.9
2017-Sep-16 03:30N 29°48' W 092°07'2 4.8
2017-Sep-16 03:00N 29°48' W 092°04'  
Track history (hours):
 
Tides and Currents Weather Stations Pressure Air Temp Water Temp Dewpoint Dewpoint Depression Visibility Wind Speed Wind Dir Waves Ship Positions

Dahli Brooke

Owner: Dahli Brooke, LLC., Sulphur, LA. More information available from US FCC via Universal Licensing System and Coast Guard Vessel Documentation Center.

Last reported at 2017-Sep-24 17:45 UTC. Time now 2017-Sep-25 06:34 UTC.
Position N 29°50' W 091°60'.

Length 25 m.

Type: Fishing. MMSI: 367605130.

Date/timePositionNaut miles runAvg speedWind from/ knotsBaromVisibWave heightAir tempDewpointWater temp
2017-Sep-24 17:45N 29°50' W 091°60'2 6.7
2017-Sep-24 17:26N 29°49' W 092°02'3 6.2
2017-Sep-24 17:00N 29°48' W 092°05'3 6.4
2017-Sep-24 16:30N 29°47' W 092°08'3 5.7
2017-Sep-24 16:00N 29°47' W 092°12'1 2.2
2017-Sep-24 15:30N 29°47' W 092°13'2 3.1
2017-Sep-24 15:00N 29°48' W 092°14'3 5.4
2017-Sep-24 14:30N 29°49' W 092°17'42 6.0
2017-Sep-24 07:34N 29°56' W 093°05'2 6.2
2017-Sep-24 07:14N 29°56' W 093°07'1 5.9
2017-Sep-24 07:00N 29°56' W 093°09'3 6.1
2017-Sep-24 06:30N 29°58' W 093°11'3 6.3
2017-Sep-24 06:00N 30°01' W 093°14'3 6.0
2017-Sep-24 05:30N 30°03' W 093°16'3 5.7
2017-Sep-24 05:00N 30°05' W 093°18'1 2.3
2017-Sep-24 04:30N 30°06' W 093°18'2 3.6
2017-Sep-24 04:00N 30°05' W 093°20'3 5.1
2017-Sep-24 03:30N 30°04' W 093°23'3 6.5
2017-Sep-24 03:00N 30°04' W 093°26'3 6.7
2017-Sep-24 02:30N 30°04' W 093°30'3 6.6
2017-Sep-24 02:00N 30°04' W 093°34'3 6.6
2017-Sep-24 01:30N 30°04' W 093°38'11 0.2
2017-Sep-22 02:00N 30°04' W 093°25'3 6.5
2017-Sep-22 01:30N 30°04' W 093°28'3 6.5
2017-Sep-22 01:00N 30°04' W 093°32'3 6.7
2017-Sep-22 00:30N 30°04' W 093°36'3 6.2
2017-Sep-21 23:58N 30°04' W 093°40'6 1.2
2017-Sep-21 19:14N 30°04' W 093°33'2 7.3
2017-Sep-21 19:00N 30°04' W 093°31'4 7.3
2017-Sep-21 18:30N 30°04' W 093°27'3 5.8
2017-Sep-21 18:00N 30°04' W 093°24'2 3.8
2017-Sep-21 17:30N 30°04' W 093°22'2 4.2
2017-Sep-21 17:00N 30°05' W 093°20'0 0.3
2017-Sep-21 16:24N 30°05' W 093°20'0 0.0
2017-Sep-21 16:00N 30°05' W 093°20'0 0.0
2017-Sep-21 15:30N 30°05' W 093°20'0 0.0
2017-Sep-21 15:00N 30°05' W 093°20'0 0.0
2017-Sep-21 14:30N 30°05' W 093°20'0 0.0
2017-Sep-21 14:00N 30°05' W 093°20'0 0.0
2017-Sep-21 13:30N 30°05' W 093°20'0 0.0
2017-Sep-21 13:00N 30°05' W 093°20'0 0.0
2017-Sep-21 12:30N 30°05' W 093°20'0 0.0
2017-Sep-21 12:00N 30°05' W 093°20'0 0.0
2017-Sep-21 11:30N 30°05' W 093°20'0 0.0
2017-Sep-21 11:00N 30°05' W 093°20'0 0.0
2017-Sep-21 10:30N 30°05' W 093°20'0 0.0
2017-Sep-21 10:00N 30°05' W 093°20'2 3.8
2017-Sep-21 09:30N 30°06' W 093°18'0 0.0
2017-Sep-21 09:00N 30°06' W 093°18'1 2.4
2017-Sep-21 08:30N 30°06' W 093°20'3 5.3
2017-Sep-21 08:00N 30°09' W 093°20'2 3.5
2017-Sep-21 07:30N 30°10' W 093°19'2 3.1
2017-Sep-21 07:00N 30°09' W 093°20'3 6.3
2017-Sep-21 06:30N 30°06' W 093°19'3 5.7
2017-Sep-21 06:00N 30°04' W 093°16'3 6.4
2017-Sep-21 05:30N 30°02' W 093°14'3 6.0
2017-Sep-21 05:00N 29°59' W 093°12'3 6.9
2017-Sep-21 04:30N 29°56' W 093°10'3 5.3
2017-Sep-21 04:00N 29°56' W 093°07'43 6.1
2017-Sep-20 21:03N 29°50' W 092°18'1 6.4
2017-Sep-20 20:51N 29°49' W 092°17'2 6.4
2017-Sep-20 20:30N 29°48' W 092°15'3 6.4
2017-Sep-20 20:00N 29°47' W 092°12'3 6.6
2017-Sep-20 19:30N 29°47' W 092°08'8 0.4
2017-Sep-20 01:11N 29°50' W 091°60'1 6.6
2017-Sep-20 01:00N 29°49' W 092°01'3 6.5
2017-Sep-20 00:30N 29°48' W 092°05'3 6.6
2017-Sep-20 00:00N 29°47' W 092°08'3 6.2
2017-Sep-19 23:30N 29°47' W 092°12'2 4.0
2017-Sep-19 23:00N 29°48' W 092°14'3 6.6
2017-Sep-19 22:30N 29°49' W 092°17'43 5.9
2017-Sep-19 15:16N 29°56' W 093°06'2 5.8
2017-Sep-19 15:00N 29°56' W 093°08'3 5.3
2017-Sep-19 14:30N 29°57' W 093°11'3 6.1
2017-Sep-19 14:00N 29°59' W 093°13'2 4.6
2017-Sep-19 13:30N 30°01' W 093°14'3 5.3
2017-Sep-19 13:00N 30°04' W 093°16'2 4.6
2017-Sep-19 12:30N 30°05' W 093°18'2 3.8
2017-Sep-19 12:00N 30°05' W 093°20'2 3.8
2017-Sep-19 11:30N 30°04' W 093°21'1 1.5
2017-Sep-19 11:00N 30°04' W 093°21'3 5.0
2017-Sep-19 10:30N 30°07' W 093°20'2 4.9
2017-Sep-19 10:00N 30°09' W 093°20'1 2.9
2017-Sep-19 09:30N 30°10' W 093°19'3 5.4
2017-Sep-19 09:00N 30°08' W 093°20'3 5.6
2017-Sep-19 08:30N 30°05' W 093°20'2 3.3
2017-Sep-19 08:00N 30°04' W 093°21'0 0.0
2017-Sep-19 07:30N 30°04' W 093°21'0 0.0
2017-Sep-19 07:00N 30°04' W 093°21'0 0.0
2017-Sep-19 06:30N 30°04' W 093°21'0 0.0
2017-Sep-19 06:00N 30°04' W 093°21'0 0.0
2017-Sep-19 05:30N 30°04' W 093°21'0 0.0
2017-Sep-19 05:00N 30°04' W 093°21'0 0.0
2017-Sep-19 04:30N 30°04' W 093°21'0 0.0
2017-Sep-19 04:00N 30°04' W 093°21'0 0.0
2017-Sep-19 03:30N 30°04' W 093°21'0 0.0
2017-Sep-19 03:00N 30°04' W 093°21'0 0.0
2017-Sep-19 02:30N 30°04' W 093°21'0 0.0
2017-Sep-19 02:00N 30°04' W 093°21'0 0.0
2017-Sep-19 01:30N 30°04' W 093°21'0 0.0
2017-Sep-19 01:00N 30°04' W 093°21'0 0.0
2017-Sep-19 00:30N 30°04' W 093°21'0 0.0
2017-Sep-19 00:00N 30°04' W 093°21'0 0.0
2017-Sep-18 23:30N 30°04' W 093°21'0 0.0
2017-Sep-18 23:00N 30°04' W 093°21'0 0.0
2017-Sep-18 22:30N 30°04' W 093°21'0 0.0
2017-Sep-18 22:00N 30°04' W 093°21'0 0.0
2017-Sep-18 21:30N 30°04' W 093°21'0 0.0
2017-Sep-18 21:00N 30°04' W 093°21'0 0.0
2017-Sep-18 20:30N 30°04' W 093°21'0 0.0
2017-Sep-18 20:00N 30°04' W 093°21'0 0.0
2017-Sep-18 19:30N 30°04' W 093°21'0 0.0
2017-Sep-18 19:00N 30°04' W 093°21'0 0.0
2017-Sep-18 18:30N 30°04' W 093°21'0 0.0
2017-Sep-18 18:00N 30°04' W 093°21'0 0.0
2017-Sep-18 17:30N 30°04' W 093°21'0 0.0
2017-Sep-18 17:00N 30°04' W 093°21'0 0.0
2017-Sep-18 16:30N 30°04' W 093°21'0 0.1
2017-Sep-18 16:00N 30°04' W 093°21'0 0.9
2017-Sep-18 15:30N 30°04' W 093°22'0 0.9
2017-Sep-18 15:00N 30°04' W 093°21'0 0.0
2017-Sep-18 14:30N 30°04' W 093°21'0 0.0
2017-Sep-18 14:00N 30°04' W 093°21'0 0.0
2017-Sep-18 13:30N 30°04' W 093°21'0 0.0
2017-Sep-18 13:00N 30°04' W 093°21'0 0.0
2017-Sep-18 12:30N 30°04' W 093°21'0 0.0
2017-Sep-18 12:00N 30°04' W 093°21'0 0.2
2017-Sep-18 11:30N 30°04' W 093°21'2 4.4
2017-Sep-18 11:00N 30°05' W 093°20'4 7.3
2017-Sep-18 10:30N 30°09' W 093°20'2 3.1
2017-Sep-18 10:00N 30°10' W 093°19'0 0.1
2017-Sep-18 09:30N 30°10' W 093°19'4 7.2
2017-Sep-18 09:00N 30°07' W 093°20'3 5.4
2017-Sep-18 08:30N 30°04' W 093°21'0 0.3
2017-Sep-18 08:00N 30°04' W 093°21'1 2.0
2017-Sep-18 07:30N 30°05' W 093°20'0 0.0
2017-Sep-18 07:00N 30°05' W 093°20'0 0.0
2017-Sep-18 06:30N 30°05' W 093°20'0 0.0
2017-Sep-18 06:00N 30°05' W 093°20'0 0.0
2017-Sep-18 05:30N 30°05' W 093°20'0 0.0
2017-Sep-18 05:00N 30°05' W 093°20'0 0.0
2017-Sep-18 04:30N 30°05' W 093°20'0 0.0
2017-Sep-18 04:00N 30°05' W 093°20'0 0.0
2017-Sep-18 03:30N 30°05' W 093°20'0 0.0
2017-Sep-18 03:00N 30°05' W 093°20'0 0.0
2017-Sep-18 02:30N 30°05' W 093°20'0 0.0
2017-Sep-18 02:00N 30°05' W 093°20'0 0.0
2017-Sep-18 01:30N 30°05' W 093°20'0 0.0
2017-Sep-18 01:00N 30°05' W 093°20'0 0.0
2017-Sep-18 00:30N 30°05' W 093°20'0 0.0
2017-Sep-18 00:00N 30°05' W 093°20'0 0.0
2017-Sep-17 23:30N 30°05' W 093°20'0 0.0
2017-Sep-17 23:00N 30°05' W 093°20'0 0.0
2017-Sep-17 22:30N 30°05' W 093°20'0 0.0
2017-Sep-17 22:00N 30°05' W 093°20'0 0.0
2017-Sep-17 21:30N 30°05' W 093°20'0 0.0
2017-Sep-17 21:00N 30°05' W 093°20'0 0.0
2017-Sep-17 20:30N 30°05' W 093°20'0 0.0
2017-Sep-17 20:00N 30°05' W 093°20'0 0.0
2017-Sep-17 19:30N 30°05' W 093°20'0 0.0
2017-Sep-17 19:00N 30°05' W 093°20'0 0.0
2017-Sep-17 18:30N 30°05' W 093°20'0 0.0
2017-Sep-17 18:00N 30°05' W 093°20'0 0.0
2017-Sep-17 17:30N 30°05' W 093°20'0 0.0
2017-Sep-17 17:00N 30°05' W 093°20'0 0.0
2017-Sep-17 16:30N 30°05' W 093°20'0 0.0
2017-Sep-17 16:00N 30°05' W 093°20'0 0.0
2017-Sep-17 15:30N 30°05' W 093°20'0 0.0
2017-Sep-17 15:00N 30°05' W 093°20'0 0.0
2017-Sep-17 14:30N 30°05' W 093°20'0 0.0
2017-Sep-17 14:00N 30°05' W 093°20'0 0.0
2017-Sep-17 13:30N 30°05' W 093°20'0 0.0
2017-Sep-17 13:00N 30°05' W 093°20'0 0.0
2017-Sep-17 12:30N 30°05' W 093°20'0 0.0
2017-Sep-17 12:00N 30°05' W 093°20'0 0.0
2017-Sep-17 11:30N 30°05' W 093°20'0 0.0
2017-Sep-17 11:00N 30°05' W 093°20'0 0.0
2017-Sep-17 10:30N 30°05' W 093°20'0 0.0
2017-Sep-17 10:00N 30°05' W 093°20'0 0.0
2017-Sep-17 09:30N 30°05' W 093°20'0 0.0
2017-Sep-17 09:00N 30°05' W 093°20'0 0.0
2017-Sep-17 08:30N 30°05' W 093°20'0 0.0
2017-Sep-17 08:00N 30°05' W 093°20'0 0.0
2017-Sep-17 07:30N 30°05' W 093°20'0 0.0
2017-Sep-17 07:00N 30°05' W 093°20'0 0.0
2017-Sep-17 06:30N 30°05' W 093°20'0 0.0
2017-Sep-17 06:00N 30°05' W 093°20'0 0.0
2017-Sep-17 05:30N 30°05' W 093°20'0 0.0
2017-Sep-17 04:55N 30°05' W 093°20'0 0.0
2017-Sep-17 04:30N 30°05' W 093°20'0 0.0
2017-Sep-17 04:00N 30°05' W 093°20'0 0.0
2017-Sep-17 03:30N 30°05' W 093°20'0 0.0
2017-Sep-17 03:00N 30°05' W 093°20'0 0.0
2017-Sep-17 02:30N 30°05' W 093°20'0 0.0
2017-Sep-17 02:00N 30°05' W 093°20'0 0.0
2017-Sep-17 01:30N 30°05' W 093°20'0 0.0
2017-Sep-17 01:00N 30°05' W 093°20'0 0.0
2017-Sep-17 00:30N 30°05' W 093°20'0 0.0
2017-Sep-17 00:00N 30°05' W 093°20'0 0.0
2017-Sep-16 23:30N 30°05' W 093°20'0 0.0
2017-Sep-16 23:00N 30°05' W 093°20'0 0.0
2017-Sep-16 22:30N 30°05' W 093°20'0 0.0
2017-Sep-16 22:00N 30°05' W 093°20'0 0.0
2017-Sep-16 21:30N 30°05' W 093°20'0 0.0
2017-Sep-16 21:00N 30°05' W 093°20'1 2.1
2017-Sep-16 20:30N 30°06' W 093°20'3 7.0
2017-Sep-16 20:00N 30°09' W 093°20'1 1.1
2017-Sep-16 19:30N 30°10' W 093°19'3 7.0
2017-Sep-16 19:00N 30°06' W 093°20'2 3.9
2017-Sep-16 18:30N 30°05' W 093°18'3 5.1
2017-Sep-16 18:00N 30°03' W 093°16'3 5.3
2017-Sep-16 17:30N 30°01' W 093°14'3 5.7
2017-Sep-16 17:00N 29°59' W 093°12'3 5.9
2017-Sep-16 16:30N 29°57' W 093°10'3 5.7
2017-Sep-16 16:00N 29°56' W 093°07'42 5.1
2017-Sep-16 07:40N 29°50' W 092°18'1 5.1
2017-Sep-16 07:30N 29°50' W 092°18'1 3.0
2017-Sep-16 07:00N 29°49' W 092°16'1 2.9
2017-Sep-16 06:30N 29°48' W 092°15'2 4.4
2017-Sep-16 06:00N 29°47' W 092°12'1 2.0
2017-Sep-16 05:30N 29°47' W 092°11'0 0.0
2017-Sep-16 05:00N 29°47' W 092°11'0 0.1
2017-Sep-16 04:30N 29°47' W 092°11'2 3.3
2017-Sep-16 04:00N 29°47' W 092°09'2 4.9
2017-Sep-16 03:30N 29°48' W 092°07'2 4.8
2017-Sep-16 03:00N 29°48' W 092°04'  

Dump ship's entire track history